Latest Weather Observations for Leigh Creek

IDS60801

Issued at 10:05 am CST Wednesday 1 October 2014 (issued every 30 minutes, with the page automatically refreshed every 10 minutes)

About weather observations | Map of weather stations | Latest weather observations for SA | Other Formats
Station Details ID: 017110 Name: LEIGH CREEK AIRPORT Lat: -30.60 Lon: 138.42 Height: 258.8 m
Data from the previous 72 hours. | See also: Recent months at Leigh Creek
Date/Time
CST
Temp
°C
App
Temp
°C
Dew
Point
Rel
Hum
%
Delta-T
°C
Wind Press
QNH
hPa
Press
MSL
hPa
Rain
since 9 am
mm
Dir
 
Spd
km/h
Gust
km/h
Spd
kts
Gust
kts
01/10:00am 18.6 14.5 2.4 34 7.5 SSE 13 20 7 11 1025.8 1025.1 0.0
01/09:30am 17.4 12.5 2.2 36 6.9 SE 17 26 9 14 1025.7 1025.0 0.0
01/09:00am 16.6 11.1 1.9 37 6.6 SE 20 32 11 17 1025.6 1025.2 0.0
01/08:30am 16.0 10.7 2.8 41 6.0 SE 20 32 11 17 1025.2 1024.8 0.0
01/08:00am 15.6 10.7 4.0 46 5.4 SE 19 26 10 14 1024.9 1024.5 0.0
01/07:30am 14.3 9.7 3.7 49 4.9 SE 17 28 9 15 1024.4 1024.1 0.0
01/07:00am 13.5 8.8 3.3 50 4.6 SSE 17 26 9 14 1024.1 1023.7 0.0
01/06:30am 12.9 7.8 3.0 51 4.4 SE 19 30 10 16 1023.6 1023.2 0.0
01/06:00am 11.7 8.0 4.7 62 3.2 S 13 20 7 11 1023.3 1022.9 0.0
01/05:30am 11.5 5.9 5.4 66 2.8 S 24 30 13 16 1022.7 1022.3 0.0
01/05:00am 11.7 6.0 5.1 64 3.1 S 24 33 13 18 1022.2 1021.8 0.0
01/04:30am 12.2 7.3 4.9 61 3.4 S 20 28 11 15 1021.9 1021.5 0.0
01/04:00am 12.8 7.1 5.0 59 3.7 S 24 33 13 18 1021.5 1021.1 0.0
01/03:30am 13.2 9.2 5.1 58 3.8 S 15 26 8 14 1021.4 1021.0 0.0
01/03:00am 13.4 8.2 5.6 59 3.7 S 22 32 12 17 1021.5 1021.1 0.0
01/02:30am 13.9 9.4 6.3 60 3.7 S 19 30 10 16 1021.4 1021.0 0.0
01/02:00am 14.3 9.7 6.6 60 3.8 S 20 28 11 15 1021.5 1021.1 0.0
01/01:30am 14.7 8.6 6.8 59 3.9 S 28 37 15 20 1021.4 1021.0 0.0
01/01:00am 15.3 8.9 6.8 57 4.2 S 30 39 16 21 1021.4 1021.0 0.0
01/12:30am 16.0 9.1 7.2 56 4.4 S 33 46 18 25 1021.4 1021.0 0.0
01/12:00am 16.5 9.6 7.4 55 4.6 SSW 33 46 18 25 1021.3 1020.9 0.0
 
Date/Time
CST
Temp
°C
App
Temp
°C
Dew
Point
Rel
Hum
%
Delta-T
°C
Wind Press
QNH
hPa
Press
MSL
hPa
Rain
since 9 am
mm
Dir
 
Spd
km/h
Gust
km/h
Spd
kts
Gust
kts
30/11:30pm 17.2 9.6 7.5 53 4.9 S 37 48 20 26 1021.3 1020.9 0.0
30/11:00pm 18.1 10.9 7.5 50 5.4 SSW 35 46 19 25 1021.2 1020.8 0.0
30/10:30pm 19.6 14.2 6.3 42 6.7 S 24 32 13 17 1021.1 1020.7 0.0
30/10:00pm 20.7 13.9 5.1 36 7.8 S 30 41 16 22 1020.8 1020.3 0.0
30/09:30pm 22.1 15.5 4.2 31 8.8 SSW 28 41 15 22 1020.4 1020.0 0.0
30/09:00pm 23.1 16.3 3.1 27 9.7 SSW 28 37 15 20 1020.0 1019.6 0.0
30/08:30pm 23.4 17.3 2.8 26 10.0 SW 24 32 13 17 1019.7 1019.3 0.0
30/08:00pm 23.6 18.2 2.4 25 10.2 SSW 20 26 11 14 1019.3 1018.9 0.0
30/07:30pm 23.7 18.9 2.5 25 10.2 SSW 17 20 9 11 1018.8 1018.4 0.0
30/07:00pm 24.8 18.9 1.7 22 11.1 SSW 22 30 12 16 1018.4 1018.0 0.0
30/06:30pm 25.7 18.8 0.4 19 11.9 SSW 26 33 14 18 1017.8 1017.4 0.0
30/06:00pm 26.7 19.5 0.4 18 12.5 SW 28 39 15 21 1017.3 1016.8 0.0
30/05:30pm 27.8 20.5 -0.3 16 13.3 SSW 28 41 15 22 1016.8 1016.3 0.0
30/05:00pm 29.0 21.9 1.5 17 13.5 SSW 28 37 15 20 1016.6 1016.1 0.0
30/04:30pm 29.3 22.1 0.9 16 13.9 SSW 28 46 15 25 1016.1 1015.7 0.0
30/04:29pm 29.4 22.2 1.0 16 13.9 SSW 28 46 15 25 1016.0 1015.6 0.0
30/04:00pm 29.4 23.0 1.0 16 13.9 SSW 24 39 13 21 1016.0 1015.6 0.0
30/03:30pm 29.5 22.5 1.9 17 13.7 SW 28 44 15 24 1016.2 1015.8 0.0
30/03:00pm 30.0 22.2 1.5 16 14.1 SW 32 46 17 25 1016.0 1015.6 0.0
30/02:30pm 30.6 22.5 1.0 15 14.6 SSW 33 52 18 28 1015.9 1015.5 0.0
30/02:18pm 31.2 24.0 0.6 14 15.1 W 28 46 15 25 1015.7 1015.3 0.0
30/02:00pm 31.3 24.8 0.6 14 15.1 WSW 24 37 13 20 1015.8 1015.4 0.0
30/01:30pm 30.5 23.7 1.0 15 14.5 WSW 26 37 14 20 1016.0 1015.6 0.0
30/01:00pm 30.7 23.9 1.1 15 14.6 WSW 26 46 14 25 1016.2 1015.8 0.0
30/12:30pm 30.6 24.6 1.0 15 14.6 W 22 39 12 21 1016.6 1016.1 0.0
30/12:00pm 30.4 23.4 1.8 16 14.3 WSW 28 41 15 22 1016.9 1016.4 0.0
30/11:30am 30.6 23.6 1.9 16 14.4 SW 28 46 15 25 1016.9 1016.4 0.0
30/11:26am 30.6 23.6 1.9 16 14.4 SW 28 46 15 25 1016.9 1016.4 0.0
30/11:00am 30.8 23.8 2.1 16 14.5 W 28 37 15 20 1017.1 1016.6 0.0
30/10:30am 30.3 24.0 1.7 16 14.2 W 24 35 13 19 1017.2 1016.7 0.0
30/10:00am 30.0 22.9 1.5 16 14.1 WSW 28 37 15 20 1017.4 1016.9 0.0
30/09:30am 29.5 24.5 1.1 16 13.9 NNW 17 24 9 13 1017.3 1016.8 0.0
30/09:00am 28.1 24.3 1.6 18 13.0 N 11 15 6 8 1017.3 1016.8 0.0
30/08:30am 24.5 22.8 2.0 23 10.8 CALM 0 0 0 0 1017.3 1016.8 0.0
30/08:00am 22.0 20.4 2.7 28 9.3 CALM 0 0 0 0 1017.3 1016.8 0.0
30/07:30am 18.7 17.0 1.7 32 7.8 CALM 0 6 0 3 1017.2 1016.7 0.0
30/07:00am 16.4 13.5 1.3 36 6.7 SSW 6 7 3 4 1016.9 1016.4 0.0
30/06:30am 13.8 10.9 2.7 47 5.0 SE 7 9 4 5 1016.6 1016.1 0.0
30/06:00am 12.7 11.0 2.0 48 4.7 CALM 0 0 0 0 1016.2 1015.8 0.0
30/05:30am 13.5 10.6 2.4 47 4.9 SE 7 13 4 7 1015.6 1015.2 0.0
30/05:00am 14.0 11.0 2.3 45 5.2 S 7 9 4 5 1015.4 1015.0 0.0
30/04:30am 14.0 9.9 2.0 44 5.3 ESE 13 15 7 8 1014.9 1014.5 0.0
30/04:00am 14.2 11.2 2.1 44 5.4 SE 7 11 4 6 1014.9 1014.5 0.0
30/03:30am 15.8 12.7 1.5 38 6.4 SSE 7 11 4 6 1014.8 1014.4 0.0
30/03:00am 14.5 12.1 2.4 44 5.4 SE 4 9 2 5 1014.9 1014.5 0.0
30/02:30am 14.5 10.9 2.7 45 5.3 ESE 11 13 6 7 1014.9 1014.5 0.0
30/02:00am 16.3 13.0 2.7 40 6.2 SE 9 11 5 6 1015.3 1014.9 0.0
30/01:30am 15.2 13.8 3.4 45 5.4 CALM 0 0 0 0 1015.6 1015.2 0.0
30/01:00am 15.8 13.9 2.9 42 5.9 S 2 7 1 4 1015.9 1015.5 0.0
30/12:30am 16.4 14.4 2.4 39 6.4 S 2 7 1 4 1016.1 1015.7 0.0
30/12:00am 17.0 15.1 3.0 39 6.5 S 2 6 1 3 1016.3 1015.9 0.0
 
Date/Time
CST
Temp
°C
App
Temp
°C
Dew
Point
Rel
Hum
%
Delta-T
°C
Wind Press
QNH
hPa
Press
MSL
hPa
Rain
since 9 am
mm
Dir
 
Spd
km/h
Gust
km/h
Spd
kts
Gust
kts
29/11:30pm 17.7 16.1 2.5 36 7.0 CALM 0 0 0 0 1016.3 1015.9 0.0
29/11:00pm 18.2 16.6 2.5 35 7.3 CALM 0 0 0 0 1016.4 1016.0 0.0
29/10:30pm 19.6 17.2 2.0 31 8.2 S 4 7 2 4 1016.3 1015.9 0.0
29/10:00pm 19.6 17.5 2.0 31 8.2 S 2 9 1 5 1016.1 1015.7 0.0
29/09:30pm 20.3 17.0 2.2 30 8.5 S 9 11 5 6 1016.2 1015.8 0.0
29/09:00pm 20.2 17.4 2.1 30 8.5 S 6 7 3 4 1016.0 1015.6 0.0
29/08:30pm 20.6 18.9 2.0 29 8.7 CALM 0 0 0 0 1015.8 1015.4 0.0
29/08:00pm 21.4 19.6 1.1 26 9.4 CALM 0 2 0 1 1015.5 1015.1 0.0
29/07:30pm 21.8 20.0 0.9 25 9.7 CALM 0 0 0 0 1015.1 1014.7 0.0
29/07:00pm 22.8 18.9 1.2 24 10.1 S 11 13 6 7 1014.9 1014.5 0.0
29/06:30pm 23.7 19.4 0.7 22 10.7 S 13 19 7 10 1014.5 1014.1 0.0
29/06:00pm 24.8 20.0 0.3 20 11.5 S 15 20 8 11 1014.3 1013.9 0.0
29/05:30pm 25.9 21.5 0.5 19 12.0 SW 13 20 7 11 1014.2 1013.7 0.0
29/05:00pm 26.2 20.6 0.0 18 12.3 WSW 19 24 10 13 1014.0 1013.5 0.0
29/04:30pm 27.3 21.7 0.1 17 12.9 WSW 19 28 10 15 1013.9 1013.4 0.0
29/04:00pm 28.2 21.8 0.9 17 13.2 WSW 24 30 13 16 1013.7 1013.2 0.0
29/03:30pm 28.5 23.1 1.1 17 13.4 W 19 30 10 16 1013.6 1013.1 0.0
29/03:00pm 29.1 23.8 1.6 17 13.6 WNW 19 24 10 13 1013.8 1013.3 0.0
29/02:30pm 29.0 23.4 1.5 17 13.5 WNW 20 28 11 15 1014.0 1013.5 0.0
29/02:00pm 28.1 23.1 1.6 18 13.0 W 17 24 9 13 1014.3 1013.9 0.0
29/01:30pm 27.8 22.5 2.1 19 12.7 W 19 26 10 14 1014.8 1014.4 0.0
29/01:00pm 27.9 23.7 1.4 18 12.9 W 13 22 7 12 1014.9 1014.5 0.0
29/12:30pm 27.3 23.5 1.7 19 12.5 WSW 11 19 6 10 1015.3 1014.9 0.0
29/12:00pm 27.1 23.3 -0.9 16 13.0 SSW 9 17 5 9 1015.7 1015.3 0.0
29/11:30am 26.6 22.9 -3.1 14 13.2 WSW 7 17 4 9 1016.0 1015.6 0.0
29/11:00am 25.5 23.0 1.6 21 11.5 S 4 9 2 5 1016.2 1015.8 0.0
29/10:30am 24.2 21.1 3.5 26 10.2 E 9 13 5 7 1016.4 1016.0 0.0
29/10:00am 23.0 20.5 4.5 30 9.2 SSE 7 13 4 7 1016.8 1016.3 0.0
29/09:30am 20.7 18.1 6.3 39 7.3 S 9 15 5 8 1017.1 1016.6 0.0
29/09:00am 19.7 16.5 6.8 43 6.6 SSW 13 17 7 9 1017.0 1016.5 0.0
29/08:30am 18.1 13.7 6.6 47 5.8 S 19 24 10 13 1017.0 1016.5 0.0
29/08:00am 17.2 12.6 6.7 50 5.3 S 20 28 11 15 1016.7 1016.2 0.0
29/07:30am 15.8 10.9 6.8 55 4.5 S 22 28 12 15 1016.7 1016.2 0.0
29/07:00am 15.2 10.0 7.2 59 4.0 S 24 33 13 18 1016.3 1015.9 0.0
29/06:30am 14.7 9.2 7.5 62 3.6 S 26 35 14 19 1015.9 1015.5 0.0
29/06:00am 14.9 8.9 7.2 60 3.8 SSW 28 35 15 19 1015.7 1015.3 0.0
29/05:30am 15.2 8.8 7.0 58 4.1 SSW 30 37 16 20 1015.0 1014.6 0.0
29/05:00am 15.6 11.4 7.4 58 4.1 S 19 24 10 13 1014.8 1014.4 0.0
29/04:30am 16.0 13.7 7.5 57 4.3 SSE 9 15 5 8 1014.6 1014.2 0.0
29/04:00am 16.4 12.0 7.6 56 4.5 S 20 30 11 16 1014.2 1013.7 0.0
29/03:30am 17.2 12.5 7.8 54 4.8 S 22 32 12 17 1014.2 1013.7 0.0
29/03:00am 17.7 13.2 8.6 55 4.7 SSW 22 30 12 16 1014.2 1013.7 0.0
29/02:30am 18.0 14.5 8.8 55 4.8 S 17 24 9 13 1014.2 1013.7 0.0
29/02:00am 18.9 14.1 8.8 52 5.3 SSW 24 32 13 17 1014.2 1013.7 0.0
29/01:30am 19.5 14.6 8.5 49 5.8 SSW 24 32 13 17 1014.4 1014.0 0.0
29/01:00am 20.2 15.6 8.2 46 6.3 S 22 30 12 16 1014.6 1014.2 0.0
29/12:30am 20.6 15.3 8.6 46 6.4 S 26 33 14 18 1014.7 1014.3 0.0
29/12:00am 21.3 15.5 7.9 42 7.1 S 28 37 15 20 1014.7 1014.3 0.0
 
Date/Time
CST
Temp
°C
App
Temp
°C
Dew
Point
Rel
Hum
%
Delta-T
°C
Wind Press
QNH
hPa
Press
MSL
hPa
Rain
since 9 am
mm
Dir
 
Spd
km/h
Gust
km/h
Spd
kts
Gust
kts
28/11:30pm 22.6 15.8 5.1 32 8.8 SSW 30 41 16 22 1014.6 1014.2 0.0
28/11:15pm 23.4 16.4 1.7 24 10.3 SSW 28 35 15 19 1014.4 1014.0 0.0
28/11:00pm 22.2 19.9 0.1 23 10.1 WNW 2 15 1 8 1014.5 1014.1 0.0
28/10:30pm 23.9 19.3 -1.1 19 11.3 WNW 13 20 7 11 1014.4 1014.0 0.0
28/10:00pm 24.0 17.3 -1.0 19 11.3 W 24 30 13 16 1014.4 1014.0 0.0
28/09:30pm 21.7 16.2 0.3 24 9.8 N 19 20 10 11 1013.3 1012.8 0.0
28/09:00pm 22.9 17.6 -0.6 21 10.7 N 17 20 9 11 1013.1 1012.6 0.0
28/08:30pm 23.9 18.5 -1.1 19 11.3 N 17 24 9 13 1013.0 1012.5 0.0
28/08:00pm 25.8 19.8 -1.9 16 12.5 N 20 24 11 13 1012.8 1012.3 0.0
28/07:30pm 26.8 20.0 -2.0 15 13.1 N 24 30 13 16 1012.5 1012.0 0.0
28/07:00pm 27.1 21.1 -1.7 15 13.2 N 20 28 11 15 1012.3 1011.9 0.0
28/06:30pm 27.9 21.1 -2.0 14 13.7 N 24 30 13 16 1011.9 1011.5 0.0
28/06:00pm 28.7 21.8 -2.4 13 14.3 N 24 33 13 18 1011.9 1011.5 0.0
28/05:30pm 29.9 21.9 -2.6 12 15.0 NNW 30 43 16 23 1012.1 1011.7 0.0
28/05:00pm 30.5 22.0 -2.1 12 15.2 NNW 33 44 18 24 1012.0 1011.6 0.0
28/04:30pm 31.1 22.1 -2.8 11 15.7 NNW 35 48 19 26 1012.0 1011.6 0.0
28/04:00pm 31.2 21.8 -2.7 11 15.8 NNW 37 48 20 26 1012.0 1011.6 0.0
28/03:30pm 31.0 21.2 -2.9 11 15.7 NNW 39 50 21 27 1011.7 1011.3 0.0
28/03:00pm 31.1 21.0 -2.8 11 15.7 N 41 56 22 30 1011.8 1011.4 0.0
28/02:31pm 31.3 21.6 -2.6 11 15.8 NNW 39 61 21 33 1012.5 1012.0 0.0
28/02:30pm 31.0 21.2 -2.9 11 15.7 NNW 39 56 21 30 1012.6 1012.1 0.0
28/02:00pm 31.3 21.6 -2.6 11 15.8 NNW 39 54 21 29 1013.0 1012.5 0.0
28/01:30pm 30.6 20.4 -3.2 11 15.5 N 41 54 22 29 1013.6 1013.1 0.0
28/01:01pm 30.4 20.9 -1.1 13 15.0 NNW 39 57 21 31 1014.4 1014.0 0.0
28/01:00pm 30.2 20.3 -1.2 13 14.9 NNW 41 57 22 31 1014.4 1014.0 0.0
28/12:47pm 30.1 19.8 -1.3 13 14.8 NNW 43 61 23 33 1014.3 1013.9 0.0
28/12:30pm 29.7 19.3 -0.6 14 14.5 N 44 59 24 32 1014.3 1013.9 0.0
28/12:04pm 29.5 19.2 -0.8 14 14.4 N 43 65 23 35 1014.9 1014.5 0.0
28/12:00pm 29.9 19.8 0.5 15 14.3 N 43 57 23 31 1015.0 1014.6 0.0
28/11:30am 29.3 18.6 0.0 15 14.1 N 46 69 25 37 1014.7 1014.3 0.0
28/11:21am 28.8 18.4 -0.4 15 13.9 N 44 69 24 37 1014.8 1014.4 0.0
28/11:00am 28.0 16.5 -0.1 16 13.4 N 50 65 27 35 1014.8 1014.4 0.0
28/10:41am 27.8 15.9 -0.3 16 13.3 N 52 70 28 38 1014.9 1014.5 0.0
28/10:30am 27.7 15.5 0.5 17 13.0 N 54 69 29 37 1015.2 1014.8 0.0
28/10:09am 26.7 15.8 1.2 19 12.3 N 48 67 26 36 1015.2 1014.8 0.0

Other Formats:

Comma delimited format used in spreadsheet applications
http://www.bom.gov.au/fwo/IDS60801/IDS60801.94674.axf

JavaScript Object Notation format (JSON) in row-major order
http://www.bom.gov.au/fwo/IDS60801/IDS60801.94674.json